Data for 02/25/2016

Time Sea-Level Adjusted Pressure Absolute Pressure Temperature Relative Humidity Dew Point   
(mb) (inHg) (mb) (inHg) (C) (F) (%) (C) (F)
00:05 1024 30.24 853 25.19 -0.5 31.1 39 -12.9 8.7
00:10 1024 30.24 853 25.19 -0.1 31.9 37 -13.1 8.4
00:15 1024 30.24 853 25.19 0.2 32.4 35 -13.5 7.7
00:20 1024 30.24 853 25.19 0.2 32.4 36 -13 8.5
00:25 1024 30.24 853 25.19 0.2 32.3 37 -12.8 9
00:30 1024 30.24 853 25.19 0.1 32.2 38 -12.5 9.4
00:35 1024 30.24 853 25.19 0.1 32.2 38 -12.4 9.6
00:40 1024 30.24 853 25.19 -0.1 31.9 40 -12 10.3
00:45 1024 30.24 853 25.19 -0 32 38 -12.7 9.1
00:50 1024 30.24 853 25.19 0.3 32.5 37 -12.7 9.2
00:55 1024 30.24 853 25.19 0.3 32.5 37 -12.7 9.2
01:00 1024 30.24 853 25.19 0.4 32.8 38 -12.2 10
01:05 1024 30.24 853 25.19 0.4 32.8 39 -11.8 10.7
01:10 1024 30.24 853 25.19 0.3 32.5 41 -11.6 11.1
01:15 1024 30.24 853 25.19 0.1 32.3 43 -11.2 11.9
01:20 1024 30.24 853 25.19 0.2 32.4 43 -11 12.1
01:25 1024 30.24 853 25.19 0.2 32.4 45 -10.3 13.5
01:30 1024 30.24 853 25.19 -0 31.9 47 -10 14
01:35 1024 30.24 853 25.19 -0 31.9 49 -9.5 14.9
01:40 1024 30.24 853 25.19 -0.1 31.8 49 -9.6 14.8
01:45 1024 30.24 853 25.19 -0.1 31.8 46 -10.3 13.5
01:50 1024 30.24 853 25.19 0 32 49 -9.5 15
01:55 1024 30.24 853 25.19 -0.1 31.8 51 -9 15.8
02:00 1024 30.24 853 25.19 -0.4 31.3 52 -9.1 15.5
02:05 1024 30.24 853 25.19 -0.7 30.8 52 -9.3 15.3
02:10 1024 30.24 853 25.19 -1 30.2 55 -9 15.7
02:15 1024 30.24 853 25.19 -1.1 30.1 52 -9.7 14.5
02:20 1024 30.24 853 25.19 -0.9 30.4 54 -9 15.7
02:25 1024 30.24 853 25.19 -1 30.3 52 -9.6 14.7
02:30 1024 30.24 853 25.19 -0.9 30.4 52 -9.5 14.8
02:35 1024 30.24 853 25.19 -1 30.3 53 -9.3 15.3
02:40 1024 30.24 853 25.19 -1 30.2 51 -10 13.9
02:45 1024 30.24 853 25.19 -0.9 30.3 51 -9.9 14.1
02:50 1024 30.24 853 25.19 -0.9 30.5 49 -10.4 13.3
02:55 1024 30.24 853 25.19 -0.6 30.9 47 -10.7 12.8
03:00 1024 30.24 853 25.19 -0.4 31.3 47 -10.5 13.1
03:05 1024 30.24 853 25.19 -0.3 31.5 48 -10.1 13.9
03:10 1024 30.24 853 25.19 -0 32 46 -10.2 13.6
03:15 1024 30.24 853 25.19 0.2 32.4 45 -10.4 13.3
03:20 1024 30.24 853 25.19 0.5 32.8 46 -10 14
03:25 1024 30.24 853 25.19 0.7 33.2 46 -9.7 14.5
03:30 1024 30.24 853 25.19 0.6 33.1 47 -9.5 14.8
03:35 1024 30.24 853 25.19 0.6 33 46 -9.9 14.2
03:40 1024 30.24 853 25.19 0.6 33.1 46 -9.6 14.7
03:45 1024 30.24 853 25.19 0.6 33.1 48 -9.2 15.4
03:50 1024 30.24 853 25.19 0.6 33 48 -9.3 15.2
03:55 1024 30.24 853 25.19 0.7 33.3 45 -9.8 14.3
04:00 1024 30.24 853 25.19 0.7 33.3 49 -8.8 16.1
04:05 1024 30.24 853 25.19 0.6 33 49 -9 15.7
04:10 1024 30.24 853 25.19 0.6 33.1 50 -8.7 16.4
04:15 1024 30.24 853 25.19 0.4 32.8 50 -8.7 16.3
04:20 1024 30.24 853 25.19 0.3 32.6 48 -9.4 15.1
04:25 1024 30.24 853 25.19 0.6 33.1 48 -9.3 15.2
04:30 1024 30.24 853 25.19 0.8 33.5 49 -8.8 16.2
04:35 1024 30.24 853 25.19 0.8 33.4 49 -8.8 16.2
04:40 1024 30.24 853 25.19 0.7 33.3 49 -8.8 16.2
04:45 1024 30.24 853 25.19 0.7 33.3 49 -8.7 16.3
04:50 1024 30.24 853 25.19 0.6 33.1 51 -8.5 16.8
04:55 1024 30.24 853 25.19 0.3 32.6 52 -8.5 16.7
05:00 1024 30.24 853 25.19 0.2 32.3 51 -8.7 16.3
05:05 1024 30.24 853 25.19 0.2 32.3 52 -8.6 16.5
05:10 1024 30.24 853 25.19 0.2 32.3 50 -9.1 15.6
05:15 1024 30.24 853 25.19 0.5 32.9 50 -8.9 16
05:20 1024 30.24 853 25.19 0.7 33.2 48 -9.1 15.7
05:25 1024 30.24 853 25.19 0.8 33.4 45 -9.7 14.5
05:30 1024 30.24 853 25.19 0.8 33.4 47 -9.3 15.3
05:35 1024 30.24 853 25.19 0.7 33.2 47 -9.4 15.1
05:40 1024 30.24 853 25.19 0.5 32.9 49 -9.1 15.7
05:45 1024 30.24 853 25.19 0.4 32.7 50 -9 15.9
05:50 1024 30.24 853 25.19 0.2 32.4 46 -10.2 13.7
05:55 1024 30.24 853 25.19 0.2 32.3 46 -10.2 13.7
06:00 1024 30.24 853 25.19 -0.1 31.8 48 -9.9 14.2
06:05 1024 30.24 853 25.19 -0.3 31.4 47 -10.3 13.4
06:10 1024 30.24 853 25.19 -0.3 31.4 46 -10.7 12.8
06:15 1024 30.24 853 25.19 -0.2 31.6 45 -10.7 12.7
06:20 1024 30.24 853 25.19 -0.2 31.7 44 -10.9 12.4
06:25 1024 30.24 853 25.19 -0.2 31.7 45 -10.8 12.6
06:30 1024 30.24 853 25.19 -0.2 31.7 44 -11 12.2
06:35 1024 30.24 853 25.19 -0.1 31.8 43 -11.1 12
06:40 1024 30.24 853 25.19 -0.2 31.7 44 -11 12.1
06:45 1024 30.24 853 25.19 -0.1 31.8 44 -11.1 12.1
06:50 1024 30.24 853 25.19 0 32.1 41 -11.6 11.1
06:55 1024 30.24 853 25.19 0.2 32.4 42 -11.1 12
07:00 1024 30.24 853 25.19 0.1 32.1 43 -11.1 12.1
07:05 1024 30.24 853 25.19 -0 31.9 43 -11.3 11.7
07:10 1024 30.24 853 25.19 -0.2 31.6 44 -11.1 12
07:15 1024 30.24 853 25.19 -0.3 31.4 44 -11.1 12
07:20 1024 30.24 853 25.19 -0.3 31.4 43 -11.5 11.3
07:25 1024 30.24 853 25.19 -0.1 31.8 42 -11.6 11.1
07:30 1024 30.24 853 25.19 -0.1 31.9 43 -11.3 11.6
07:35 1024 30.24 853 25.19 -0.3 31.5 45 -10.9 12.4
07:40 1024 30.24 853 25.19 -0.5 31.1 46 -10.9 12.4
07:45 1024 30.24 853 25.19 -0.7 30.8 47 -10.5 13.1
07:50 1024 30.24 853 25.19 -0.8 30.6 46 -11 12.3
07:55 1024 30.24 853 25.19 -0.7 30.8 45 -11.1 11.9
08:00 1024 30.24 853 25.19 -0.6 31 45 -11 12.2
08:05 1024 30.24 853 25.19 -0.5 31 46 -10.7 12.7
08:10 1024 30.24 853 25.19 -0.5 31.1 47 -10.6 12.9
08:15 1024 30.24 853 25.19 -0.7 30.7 49 -10.2 13.6
08:20 1024 30.24 854 25.22 -0.8 30.5 50 -10.1 13.9
08:25 1024 30.24 854 25.22 -1.1 30 50 -10.2 13.6
08:30 1024 30.24 854 25.22 -1.1 30 51 -10.1 13.8
08:35 1024 30.24 854 25.22 -1 30.2 53 -9.5 14.8
08:40 1024 30.24 854 25.22 -1 30.2 51 -9.8 14.4
08:45 1025 30.27 854 25.22 -0.7 30.7 50 -10 14
08:50 1025 30.27 854 25.22 -0.5 31 49 -10 14
08:55 1025 30.27 854 25.22 -0.2 31.6 49 -9.8 14.4
09:00 1025 30.27 854 25.22 -0.1 31.9 49 -9.6 14.7
09:05 1025 30.27 854 25.22 0.3 32.5 47 -9.6 14.6
09:10 1025 30.27 854 25.22 0.4 32.7 48 -9.5 14.9
09:15 1025 30.27 854 25.22 0.7 33.2 46 -9.6 14.8
09:20 1025 30.27 854 25.22 1.1 34 46 -9.3 15.2
09:25 1025 30.27 854 25.22 1.1 34 47 -8.9 15.9
09:30 1025 30.27 854 25.22 0.7 33.3 49 -8.8 16.1
09:35 1025 30.27 854 25.22 0.9 33.6 45 -9.7 14.5
09:40 1025 30.27 854 25.22 0.9 33.7 46 -9.5 14.9
09:45 1025 30.27 854 25.22 1.1 33.9 45 -9.5 14.8
09:50 1025 30.27 854 25.22 1.3 34.4 43 -9.8 14.4
09:55 1025 30.27 854 25.22 2 35.7 42 -9.7 14.6
10:00 1025 30.27 854 25.22 2.5 36.5 40 -9.9 14.2
10:05 1025 30.27 854 25.22 2.9 37.3 38 -10 14
10:10 1025 30.27 854 25.22 3.3 38 36 -10.4 13.3
10:15 1025 30.27 854 25.22 3.4 38.1 34 -11 12.3
10:20 1025 30.27 854 25.22 3.8 38.9 33 -11 12.2
10:25 1025 30.27 854 25.22 4.2 39.6 33 -10.8 12.6
10:30 1025 30.27 854 25.22 4.5 40.1 32 -11 12.2
10:35 1025 30.27 854 25.22 4.5 40.1 31 -11 12.1
10:40 1025 30.27 854 25.22 4.7 40.4 31 -11.1 12.1
10:45 1025 30.27 854 25.22 4.8 40.7 32 -10.7 12.7
10:50 1025 30.27 854 25.22 4.7 40.5 32 -10.7 12.8
10:55 1025 30.27 854 25.22 4.9 40.8 32 -10.5 13
11:00 1025 30.27 854 25.22 4.8 40.6 33 -10.4 13.4
11:05 1025 30.27 854 25.22 4.5 40.1 35 -9.7 14.5
11:10 1025 30.27 855 25.25 3.6 38.4 37 -9.9 14.1
11:15 1025 30.27 854 25.22 3.8 38.8 35 -10.2 13.6
11:20 1025 30.27 854 25.22 4.8 40.6 32 -10.5 13.1
11:25 1025 30.27 854 25.22 4.7 40.5 33 -10.2 13.6
11:30 1025 30.27 854 25.22 5.2 41.4 33 -9.9 14.1
11:35 1025 30.27 854 25.22 5.4 41.8 33 -9.7 14.5
11:40 1025 30.27 854 25.22 5.5 41.9 32 -9.8 14.4
11:45 1025 30.27 854 25.22 5.6 42 32 -10 14
11:50 1025 30.27 854 25.22 6.2 43.2 30 -10.2 13.7
11:55 1025 30.27 854 25.22 6.5 43.8 29 -10.2 13.7
12:00 1025 30.27 854 25.22 6.4 43.6 29 -10.1 13.8
12:05 1025 30.27 854 25.22 6.3 43.4 28 -10.7 12.7
12:10 1025 30.27 854 25.22 7.1 44.7 27 -10.7 12.8
12:15 1025 30.27 854 25.22 6.9 44.5 27 -10.7 12.8
12:20 1025 30.27 854 25.22 6.9 44.5 26 -11.1 12
12:25 1025 30.27 854 25.22 7.6 45.7 26 -10.9 12.5
12:30 1025 30.27 854 25.22 8.2 46.7 25 -10.7 12.7
12:35 1025 30.27 854 25.22 8 46.5 25 -10.7 12.7
12:40 1025 30.27 854 25.22 7.8 46 26 -10.6 12.9
12:45 1025 30.27 854 25.22 7.9 46.2 26 -10.4 13.3
12:50 1025 30.27 854 25.22 8.1 46.5 25 -10.7 12.8
12:55 1025 30.27 854 25.22 8.3 46.9 27 -9.6 14.7
13:00 1025 30.27 854 25.22 7.2 45 27 -10.5 13.1
13:05 1025 30.27 854 25.22 7.5 45.5 27 -10.4 13.2
13:10 1025 30.27 854 25.22 7.4 45.3 27 -10.6 12.9
13:15 1025 30.27 854 25.22 8.4 47.1 26 -10.1 13.7
13:20 1025 30.27 854 25.22 8.5 47.3 26 -10.2 13.7
13:25 1025 30.27 854 25.22 9.1 48.4 24 -10.4 13.3
13:30 1025 30.27 854 25.22 10 49.9 23 -10.5 13.2
13:35 1025 30.27 854 25.22 10.3 50.5 22 -10.5 13.1
13:40 1025 30.27 854 25.22 10.5 50.9 24 -9.1 15.5
13:45 1025 30.27 854 25.22 10.2 50.4 24 -9.7 14.5
13:50 1024 30.24 854 25.22 10.4 50.8 24 -9.5 14.8
13:55 1024 30.24 854 25.22 10.7 51.2 21 -10.8 12.6
14:00 1024 30.24 854 25.22 10.1 50.1 23 -10.1 13.8
14:05 1024 30.24 854 25.22 9.6 49.3 25 -9.5 14.9
14:10 1024 30.24 854 25.22 8.7 47.7 24 -10.8 12.5
14:15 1024 30.24 853 25.19 9.8 49.6 22 -10.9 12.4
14:20 1024 30.24 853 25.19 10.6 51 22 -10.4 13.2
14:25 1024 30.24 853 25.19 8.8 47.8 24 -10.9 12.5
14:30 1024 30.24 853 25.19 8.7 47.6 25 -10.5 13
14:35 1024 30.24 853 25.19 9.1 48.4 24 -10.7 12.8
14:40 1024 30.24 853 25.19 9.1 48.4 23 -11.2 11.8
14:45 1024 30.24 853 25.19 10.5 50.8 22 -10.3 13.5
14:50 1024 30.24 853 25.19 10 50 24 -9.6 14.7
14:55 1024 30.24 853 25.19 10 50 22 -10.9 12.4
15:00 1024 30.24 853 25.19 10.8 51.5 21 -10.7 12.7
15:05 1024 30.24 853 25.19 11.1 51.9 20 -11 12.2
15:10 1024 30.24 853 25.19 10.8 51.5 21 -10.8 12.6
15:15 1024 30.24 853 25.19 10.8 51.5 21 -10.8 12.6
15:20 1024 30.24 853 25.19 11.4 52.5 21 -10.1 13.9
15:25 1024 30.24 853 25.19 11.3 52.4 19 -11.8 10.7
15:30 1023 30.21 853 25.19 11.9 53.4 19 -11.3 11.6
15:35 1024 30.24 853 25.19 12.2 54 18 -11.1 12
15:40 1023 30.21 853 25.19 11.9 53.4 18 -11.4 11.5
15:45 1023 30.21 853 25.19 11.6 52.9 19 -11.4 11.4
15:50 1023 30.21 853 25.19 11.8 53.2 19 -11.2 11.8
15:55 1023 30.21 853 25.19 11.9 53.4 19 -11.2 11.9
16:00 1023 30.21 853 25.19 12.1 53.8 18 -11.3 11.6
16:05 1023 30.21 853 25.19 11.6 53 19 -11.2 11.8
16:10 1023 30.21 853 25.19 11.7 53 20 -10.6 12.9
16:15 1023 30.21 853 25.19 11.5 52.7 19 -11.4 11.6
16:20 1023 30.21 853 25.19 11.8 53.2 19 -11.2 11.8
16:25 1023 30.21 853 25.19 11.7 53 19 -11.3 11.6
16:30 1023 30.21 853 25.19 11.4 52.5 20 -10.9 12.4
16:35 1023 30.21 853 25.19 11 51.7 20 -11.2 11.9
16:40 1023 30.21 853 25.19 11.2 52.1 19 -11.4 11.5
16:45 1023 30.21 853 25.19 11.3 52.4 20 -11.1 12
16:50 1023 30.21 853 25.19 11.3 52.3 20 -11.1 12
16:55 1023 30.21 853 25.19 11.5 52.7 19 -11.2 11.9
17:00 1023 30.21 853 25.19 11.9 53.4 19 -11.2 11.8
17:05 1023 30.21 853 25.19 12 53.5 19 -11.2 11.8
17:10 1023 30.21 853 25.19 12 53.6 19 -11.3 11.7
17:15 1023 30.21 853 25.19 12.1 53.7 18 -11.4 11.5
17:20 1023 30.21 853 25.19 12.1 53.9 19 -11.1 12
17:25 1023 30.21 853 25.19 10.9 51.7 20 -11.2 11.9
17:30 1023 30.21 853 25.19 11.1 52 20 -10.9 12.4
17:35 1023 30.21 853 25.19 11.5 52.7 19 -11.1 12.1
17:40 1023 30.21 853 25.19 11.6 53 19 -11.2 11.8
17:45 1023 30.21 853 25.19 11.6 52.8 19 -11.3 11.7
17:50 1023 30.21 853 25.19 12 53.6 20 -10.5 13.1
17:55 1023 30.21 853 25.19 12 53.7 21 -9.7 14.6
18:00 1023 30.21 853 25.19 11.6 52.9 22 -9.5 15
18:05 1023 30.21 853 25.19 11.1 52 23 -9.4 15.1
18:10 1023 30.21 853 25.19 10.7 51.2 22 -10.2 13.7
18:15 1024 30.24 853 25.19 10.5 50.8 24 -9.4 15
18:20 1024 30.24 853 25.19 10.4 50.7 24 -9.4 15.1
18:25 1024 30.24 853 25.19 10 50.1 24 -9.4 15.1
18:30 1024 30.24 853 25.19 10 50 24 -9.8 14.3
18:35 1024 30.24 853 25.19 9.9 49.8 24 -9.6 14.8
18:40 1024 30.24 853 25.19 10 49.9 24 -9.6 14.8
18:45 1024 30.24 853 25.19 9.9 49.7 25 -9.2 15.5
18:50 1024 30.24 853 25.19 9.6 49.3 24 -9.9 14.1
18:55 1024 30.24 853 25.19 9.6 49.3 25 -9.5 14.9
19:00 1024 30.24 853 25.19 9.7 49.4 25 -9.5 14.8
19:05 1024 30.24 853 25.19 9 48.2 29 -8.3 17.1
19:10 1024 30.24 853 25.19 7.9 46.3 30 -8.6 16.5
19:15 1024 30.24 853 25.19 7.3 45.1 31 -8.8 16.1
19:20 1024 30.24 853 25.19 6.9 44.5 32 -8.7 16.4
19:25 1024 30.24 853 25.19 6.5 43.7 33 -8.5 16.6
19:30 1024 30.24 853 25.19 6 42.9 34 -8.7 16.3
19:35 1024 30.24 853 25.19 5.7 42.3 35 -8.5 16.7
19:40 1024 30.24 853 25.19 5.5 41.9 35 -8.9 16
19:45 1024 30.24 853 25.19 5.4 41.7 34 -9.4 15
19:50 1024 30.24 853 25.19 5.3 41.5 35 -9 15.8
19:55 1024 30.24 853 25.19 5.1 41.1 36 -8.8 16.2
20:00 1024 30.24 853 25.19 4.9 40.7 37 -8.8 16.2
20:05 1024 30.24 853 25.19 4.7 40.4 37 -8.9 16.1
20:10 1024 30.24 853 25.19 4.6 40.3 39 -8.2 17.3
20:15 1024 30.24 853 25.19 4.5 40.1 39 -8.2 17.2
20:20 1024 30.24 853 25.19 4.6 40.2 40 -8 17.6
20:25 1024 30.24 853 25.19 4.5 40.1 39 -8.3 17.1
20:30 1024 30.24 853 25.19 4.6 40.4 38 -8.5 16.8
20:35 1024 30.24 853 25.19 4.6 40.2 39 -8.3 17
20:40 1024 30.24 853 25.19 4.6 40.2 38 -8.5 16.8
20:45 1024 30.24 853 25.19 4.4 40 40 -8.1 17.4
20:50 1024 30.24 853 25.19 4.2 39.5 41 -7.9 17.7
20:55 1024 30.24 853 25.19 4 39.2 41 -8 17.6
21:00 1024 30.24 853 25.19 3.9 39.1 40 -8.4 16.8
21:05 1024 30.24 853 25.19 4.3 39.7 41 -8 17.6
21:10 1024 30.24 853 25.19 3.8 38.9 43 -7.6 18.4
21:15 1024 30.24 853 25.19 3.3 38 43 -8 17.6
21:20 1024 30.24 853 25.19 2.9 37.3 45 -8 17.6
21:25 1024 30.24 853 25.19 2.8 37.1 42 -8.8 16.1
21:30 1024 30.24 853 25.19 3.4 38.1 40 -8.9 16
21:35 1024 30.24 853 25.19 3.6 38.4 40 -9 15.9
21:40 1024 30.24 853 25.19 3.6 38.5 39 -9.1 15.7
21:45 1024 30.24 853 25.19 3.8 38.8 37 -9.6 14.8
21:50 1024 30.24 853 25.19 4.1 39.4 36 -9.6 14.7
21:55 1024 30.24 853 25.19 4 39.3 38 -9 15.7
22:00 1024 30.24 853 25.19 3.7 38.7 40 -8.6 16.5
22:05 1024 30.24 853 25.19 3.3 37.9 41 -8.6 16.5
22:10 1024 30.24 853 25.19 3.1 37.6 43 -8.5 16.8
22:15 1024 30.24 853 25.19 2.9 37.2 43 -8.5 16.6
22:20 1024 30.24 853 25.19 2.6 36.7 44 -8.5 16.7
22:25 1024 30.24 853 25.19 2.4 36.2 45 -8.3 17
22:30 1024 30.24 853 25.19 1.9 35.4 47 -8.3 17.1
22:35 1024 30.24 853 25.19 1.5 34.8 49 -7.9 17.7
22:40 1024 30.24 853 25.19 1.2 34.1 50 -8.1 17.4
22:45 1024 30.24 853 25.19 1.1 34 50 -8.1 17.3
22:50 1024 30.24 853 25.19 1.1 34.1 50 -8.2 17.2
22:55 1024 30.24 854 25.22 1.2 34.2 50 -8.2 17.3
23:00 1024 30.24 854 25.22 1.2 34.1 50 -8.2 17.2
23:05 1024 30.24 854 25.22 1.1 34.1 50 -8.2 17.2
23:10 1024 30.24 854 25.22 1.1 34.1 50 -8.2 17.2
23:15 1024 30.24 854 25.22 1.1 34 50 -8.3 17.1
23:20 1024 30.24 854 25.22 1.1 33.9 50 -8.2 17.2
23:25 1024 30.24 854 25.22 1.1 34 50 -8.2 17.2
23:30 1024 30.24 854 25.22 1.1 33.9 50 -8.3 17.1
23:35 1024 30.24 854 25.22 1.2 34.1 48 -8.6 16.6
23:40 1024 30.24 854 25.22 1.4 34.6 47 -8.7 16.3
23:45 1025 30.27 854 25.22 1.6 34.9 46 -8.8 16.1
23:50 1025 30.27 854 25.22 1.7 35.1 47 -8.5 16.6
23:55 1025 30.27 854 25.22 1.6 34.8 47 -8.6 16.5
24:00 1025 30.27 854 25.22 1.5 34.7 47 -8.6 16.6